Yuho Maru No.3 — JD2491 — position and weather

sailwx.info

Track history (hours):
 
Tides and Currents Weather Stations Pressure Air Temp Water Temp Dewpoint Dewpoint Depression Visibility Wind Speed Wind Dir Waves Ship Positions

Yuho Maru No.3

Last reported at 2014-Jul-24 19:33 UTC. Time now 2014-Jul-24 20:03 UTC.
Position N 35°36' E 140°06'.

Length 65 m; draft 4.2 m.

Type: Tanker. MMSI: 431000336.

Date/timePositionNaut miles runAvg speedWind from/ knotsBaromVisibWave heightAir tempDewpointWater temp
2014-Jul-24 19:33N 35°36' E 140°06'0 0.0
2014-Jul-24 18:33N 35°36' E 140°06'0 0.0
2014-Jul-24 17:33N 35°36' E 140°06'0 0.0
2014-Jul-24 16:33N 35°36' E 140°06'0 0.0
2014-Jul-24 15:33N 35°36' E 140°06'0 0.0
2014-Jul-24 14:33N 35°36' E 140°06'0 0.0
2014-Jul-24 13:33N 35°36' E 140°06'0 0.0
2014-Jul-24 12:33N 35°36' E 140°06'0 0.0
2014-Jul-24 11:33N 35°36' E 140°06'0 0.0
2014-Jul-24 10:33N 35°36' E 140°06'0 0.0
2014-Jul-24 09:33N 35°36' E 140°06'0 0.0
2014-Jul-24 08:33N 35°36' E 140°06'0 0.0
2014-Jul-24 07:33N 35°36' E 140°06'0 0.0
2014-Jul-24 06:33N 35°36' E 140°06'0 0.0
2014-Jul-24 05:33N 35°36' E 140°06'0 0.0
2014-Jul-24 04:33N 35°36' E 140°06'0 0.0
2014-Jul-24 03:33N 35°36' E 140°06'1111.0
2014-Jul-24 02:33N 35°32' E 139°54'6 6.4
2014-Jul-24 01:33N 35°31' E 139°46'0 0.0
2014-Jul-24 00:33N 35°31' E 139°46'0 0.0
2014-Jul-23 23:33N 35°31' E 139°46'3 2.5
2014-Jul-23 22:33N 35°29' E 139°48'0 0.2
2014-Jul-23 21:33N 35°29' E 139°48'7 7.0
2014-Jul-23 20:33N 35°23' E 139°45'10 9.9
2014-Jul-23 19:33N 35°13' E 139°47'1110.9
2014-Jul-23 18:33N 35°03' E 139°40'1312.5
2014-Jul-23 17:33N 34°56' E 139°28'  
2014-Jul-18 17:31N 34°52' E 139°13'21 9.7
2014-Jul-18 15:24N 35°04' E 139°35'911.2
2014-Jul-18 14:33N 35°09' E 139°44'1110.6
2014-Jul-18 13:34N 35°20' E 139°42'1010.5
2014-Jul-18 12:33N 35°28' E 139°49'1010.4
2014-Jul-18 11:33N 35°30' E 140°02'0 0.0
2014-Jul-18 10:34N 35°30' E 140°02'0 0.0
2014-Jul-18 09:34N 35°30' E 140°02'0 0.0
2014-Jul-18 08:34N 35°30' E 140°02'0 0.0
2014-Jul-18 07:34N 35°30' E 140°02'0 0.0
2014-Jul-18 06:33N 35°30' E 140°02'0 0.0
2014-Jul-18 05:34N 35°30' E 140°02'0 0.0
2014-Jul-18 04:33N 35°30' E 140°02'0 0.0
2014-Jul-18 03:33N 35°30' E 140°02'1 0.5
2014-Jul-18 02:34N 35°30' E 140°01'7 7.3
2014-Jul-18 01:33N 35°36' E 140°06'0 0.0
2014-Jul-18 00:33N 35°36' E 140°06'0 0.0
2014-Jul-17 23:33N 35°36' E 140°06'0 0.0
2014-Jul-17 22:33N 35°36' E 140°06'0 0.0
2014-Jul-17 21:33N 35°36' E 140°06'0 0.0
2014-Jul-17 20:33N 35°36' E 140°06'0 0.0
2014-Jul-17 19:33N 35°36' E 140°06'0 0.0
2014-Jul-17 18:33N 35°36' E 140°06'0 0.0
2014-Jul-17 17:33N 35°36' E 140°06'0 0.0
2014-Jul-17 16:33N 35°36' E 140°06'0 0.0
2014-Jul-17 15:33N 35°36' E 140°06'0 0.0
2014-Jul-17 14:33N 35°36' E 140°06'0 0.0
2014-Jul-17 13:33N 35°36' E 140°06'0 0.0
2014-Jul-17 12:33N 35°36' E 140°06'0 0.0
2014-Jul-17 11:33N 35°36' E 140°06'0 0.0
2014-Jul-17 10:33N 35°36' E 140°06'0 0.0
2014-Jul-17 09:33N 35°36' E 140°06'0 0.0
2014-Jul-17 08:34N 35°36' E 140°06'0 0.0
2014-Jul-17 07:34N 35°36' E 140°06'6 6.3
2014-Jul-17 06:34N 35°31' E 140°01'3 2.7
2014-Jul-17 05:33N 35°29' E 140°01'0 0.0
2014-Jul-17 04:33N 35°29' E 140°01'0 0.0
2014-Jul-17 03:33N 35°29' E 140°01'1 1.0
2014-Jul-17 02:33N 35°28' E 140°00'0 0.0
2014-Jul-17 01:34N 35°28' E 140°00'0 0.0
2014-Jul-17 00:33N 35°28' E 140°00'1 1.1
2014-Jul-16 23:34N 35°29' E 139°59'2 2.4
2014-Jul-16 22:34N 35°29' E 139°56'0 0.0
2014-Jul-16 21:33N 35°29' E 139°56'0 0.0
2014-Jul-16 20:34N 35°29' E 139°56'0 0.0
2014-Jul-16 19:33N 35°29' E 139°56'4 4.3
2014-Jul-16 18:33N 35°28' E 139°51'1111.3
2014-Jul-16 17:33N 35°18' E 139°45'1111.0
2014-Jul-16 16:33N 35°07' E 139°44'1212.4
2014-Jul-16 15:33N 34°58' E 139°33'  
Track history (hours):
 
Tides and Currents Weather Stations Pressure Air Temp Water Temp Dewpoint Dewpoint Depression Visibility Wind Speed Wind Dir Waves Ship Positions

Yuho Maru No.3

Last reported at 2014-Jul-24 19:33 UTC. Time now 2014-Jul-24 20:03 UTC.
Position N 35°36' E 140°06'.

Length 65 m; draft 4.2 m.

Type: Tanker. MMSI: 431000336.

Date/timePositionNaut miles runAvg speedWind from/ knotsBaromVisibWave heightAir tempDewpointWater temp
2014-Jul-24 19:33N 35°36' E 140°06'0 0.0
2014-Jul-24 18:33N 35°36' E 140°06'0 0.0
2014-Jul-24 17:33N 35°36' E 140°06'0 0.0
2014-Jul-24 16:33N 35°36' E 140°06'0 0.0
2014-Jul-24 15:33N 35°36' E 140°06'0 0.0
2014-Jul-24 14:33N 35°36' E 140°06'0 0.0
2014-Jul-24 13:33N 35°36' E 140°06'0 0.0
2014-Jul-24 12:33N 35°36' E 140°06'0 0.0
2014-Jul-24 11:33N 35°36' E 140°06'0 0.0
2014-Jul-24 10:33N 35°36' E 140°06'0 0.0
2014-Jul-24 09:33N 35°36' E 140°06'0 0.0
2014-Jul-24 08:33N 35°36' E 140°06'0 0.0
2014-Jul-24 07:33N 35°36' E 140°06'0 0.0
2014-Jul-24 06:33N 35°36' E 140°06'0 0.0
2014-Jul-24 05:33N 35°36' E 140°06'0 0.0
2014-Jul-24 04:33N 35°36' E 140°06'0 0.0
2014-Jul-24 03:33N 35°36' E 140°06'1111.0
2014-Jul-24 02:33N 35°32' E 139°54'6 6.4
2014-Jul-24 01:33N 35°31' E 139°46'0 0.0
2014-Jul-24 00:33N 35°31' E 139°46'0 0.0
2014-Jul-23 23:33N 35°31' E 139°46'3 2.5
2014-Jul-23 22:33N 35°29' E 139°48'0 0.2
2014-Jul-23 21:33N 35°29' E 139°48'7 7.0
2014-Jul-23 20:33N 35°23' E 139°45'10 9.9
2014-Jul-23 19:33N 35°13' E 139°47'1110.9
2014-Jul-23 18:33N 35°03' E 139°40'1312.5
2014-Jul-23 17:33N 34°56' E 139°28'  
2014-Jul-18 17:31N 34°52' E 139°13'21 9.7
2014-Jul-18 15:24N 35°04' E 139°35'911.2
2014-Jul-18 14:33N 35°09' E 139°44'1110.6
2014-Jul-18 13:34N 35°20' E 139°42'1010.5
2014-Jul-18 12:33N 35°28' E 139°49'1010.4
2014-Jul-18 11:33N 35°30' E 140°02'0 0.0
2014-Jul-18 10:34N 35°30' E 140°02'0 0.0
2014-Jul-18 09:34N 35°30' E 140°02'0 0.0
2014-Jul-18 08:34N 35°30' E 140°02'0 0.0
2014-Jul-18 07:34N 35°30' E 140°02'0 0.0
2014-Jul-18 06:33N 35°30' E 140°02'0 0.0
2014-Jul-18 05:34N 35°30' E 140°02'0 0.0
2014-Jul-18 04:33N 35°30' E 140°02'0 0.0
2014-Jul-18 03:33N 35°30' E 140°02'1 0.5
2014-Jul-18 02:34N 35°30' E 140°01'7 7.3
2014-Jul-18 01:33N 35°36' E 140°06'0 0.0
2014-Jul-18 00:33N 35°36' E 140°06'0 0.0
2014-Jul-17 23:33N 35°36' E 140°06'0 0.0
2014-Jul-17 22:33N 35°36' E 140°06'0 0.0
2014-Jul-17 21:33N 35°36' E 140°06'0 0.0
2014-Jul-17 20:33N 35°36' E 140°06'0 0.0
2014-Jul-17 19:33N 35°36' E 140°06'0 0.0
2014-Jul-17 18:33N 35°36' E 140°06'0 0.0
2014-Jul-17 17:33N 35°36' E 140°06'0 0.0
2014-Jul-17 16:33N 35°36' E 140°06'0 0.0
2014-Jul-17 15:33N 35°36' E 140°06'0 0.0
2014-Jul-17 14:33N 35°36' E 140°06'0 0.0
2014-Jul-17 13:33N 35°36' E 140°06'0 0.0
2014-Jul-17 12:33N 35°36' E 140°06'0 0.0
2014-Jul-17 11:33N 35°36' E 140°06'0 0.0
2014-Jul-17 10:33N 35°36' E 140°06'0 0.0
2014-Jul-17 09:33N 35°36' E 140°06'0 0.0
2014-Jul-17 08:34N 35°36' E 140°06'0 0.0
2014-Jul-17 07:34N 35°36' E 140°06'6 6.3
2014-Jul-17 06:34N 35°31' E 140°01'3 2.7
2014-Jul-17 05:33N 35°29' E 140°01'0 0.0
2014-Jul-17 04:33N 35°29' E 140°01'0 0.0
2014-Jul-17 03:33N 35°29' E 140°01'1 1.0
2014-Jul-17 02:33N 35°28' E 140°00'0 0.0
2014-Jul-17 01:34N 35°28' E 140°00'0 0.0
2014-Jul-17 00:33N 35°28' E 140°00'1 1.1
2014-Jul-16 23:34N 35°29' E 139°59'2 2.4
2014-Jul-16 22:34N 35°29' E 139°56'0 0.0
2014-Jul-16 21:33N 35°29' E 139°56'0 0.0
2014-Jul-16 20:34N 35°29' E 139°56'0 0.0
2014-Jul-16 19:33N 35°29' E 139°56'4 4.3
2014-Jul-16 18:33N 35°28' E 139°51'1111.3
2014-Jul-16 17:33N 35°18' E 139°45'1111.0
2014-Jul-16 16:33N 35°07' E 139°44'1212.4
2014-Jul-16 15:33N 34°58' E 139°33'  

Dump ship's entire track history